Quinsam — VY6800 — position and weather

sailwx.info

Track history (hours):
 
Tides and Currents Weather Stations Pressure Air Temp Water Temp Dewpoint Dewpoint Depression Visibility Wind Speed Wind Dir Waves Ship Positions

Quinsam

Last reported at 2017-Mar-25 13:33 UTC. Time now 2017-Mar-25 13:40 UTC.
Position N 49°10' W 123°56'.

Length 88 m; draft 1.5 m.

Type: Ship. MMSI: 316001266.

Date/timePositionNaut miles runAvg speedWind from/ knotsBaromVisibWave heightAir tempDewpointWater temp
2017-Mar-25 13:33N 49°10' W 123°56'3 0.9
2017-Mar-25 10:17N 49°11' W 123°52'0 0.0
2017-Mar-25 09:29N 49°11' W 123°52'0 0.0
2017-Mar-25 07:29N 49°11' W 123°52'0 0.0
2017-Mar-25 06:23N 49°11' W 123°52'0 0.4
2017-Mar-25 05:33N 49°11' W 123°52'0 0.2
2017-Mar-25 04:32N 49°11' W 123°52'0 0.4
2017-Mar-25 03:33N 49°11' W 123°52'0 0.1
2017-Mar-25 02:33N 49°11' W 123°52'0 0.4
2017-Mar-25 01:33N 49°11' W 123°52'0 0.2
2017-Mar-25 00:31N 49°11' W 123°52'1 0.9
2017-Mar-24 23:33N 49°11' W 123°53'2 2.1
2017-Mar-24 22:33N 49°10' W 123°56'1 1.0
2017-Mar-24 21:33N 49°10' W 123°54'2 1.9
2017-Mar-24 20:33N 49°11' W 123°52'0 0.0
2017-Mar-24 19:33N 49°11' W 123°52'2 1.5
2017-Mar-24 18:33N 49°10' W 123°54'1 1.4
2017-Mar-24 17:33N 49°10' W 123°56'1 1.0
2017-Mar-24 16:33N 49°10' W 123°54'2 1.7
2017-Mar-24 15:33N 49°11' W 123°52'0 0.2
2017-Mar-24 14:23N 49°11' W 123°52'2 2.7
2017-Mar-24 13:33N 49°10' W 123°55'2 1.9
2017-Mar-24 12:23N 49°11' W 123°52'0 0.0
2017-Mar-24 11:29N 49°11' W 123°52'0 0.0
2017-Mar-24 10:08N 49°11' W 123°52'0 0.0
2017-Mar-24 07:17N 49°11' W 123°52'0 0.0
2017-Mar-24 06:24N 49°11' W 123°52'0 0.3
2017-Mar-24 05:33N 49°11' W 123°52'0 0.2
2017-Mar-24 04:34N 49°11' W 123°52'1 0.6
2017-Mar-24 03:33N 49°10' W 123°53'1 0.9
2017-Mar-24 02:33N 49°11' W 123°52'0 0.2
2017-Mar-24 01:33N 49°11' W 123°52'0 0.0
2017-Mar-24 00:33N 49°11' W 123°52'2 2.3
2017-Mar-23 23:34N 49°10' W 123°55'1 0.6
2017-Mar-23 22:33N 49°10' W 123°56'1 1.0
2017-Mar-23 21:32N 49°10' W 123°54'2 1.9
2017-Mar-23 20:33N 49°11' W 123°52'0 0.0
2017-Mar-23 19:33N 49°11' W 123°52'2 2.4
2017-Mar-23 18:34N 49°10' W 123°55'0 0.5
2017-Mar-23 17:33N 49°10' W 123°56'1 0.7
2017-Mar-23 16:33N 49°10' W 123°55'2 2.2
2017-Mar-23 15:33N 49°11' W 123°52'0 0.0
2017-Mar-23 14:28N 49°11' W 123°52'2 2.4
2017-Mar-23 13:33N 49°10' W 123°55'2 2.1
2017-Mar-23 12:33N 49°11' W 123°52'0 0.0
2017-Mar-23 06:21N 49°11' W 123°52'3 3.6
2017-Mar-23 05:33N 49°10' W 123°56'3 2.6
2017-Mar-23 04:33N 49°11' W 123°52'0 0.3
2017-Mar-23 03:33N 49°11' W 123°53'0 0.4
2017-Mar-23 02:33N 49°11' W 123°52'0 0.2
2017-Mar-23 01:33N 49°11' W 123°52'0 0.0
2017-Mar-23 00:32N 49°11' W 123°52'2 1.7
2017-Mar-22 23:33N 49°10' W 123°54'1 1.3
2017-Mar-22 22:33N 49°10' W 123°56'1 0.9
2017-Mar-22 21:33N 49°10' W 123°55'2 2.0
2017-Mar-22 20:33N 49°11' W 123°52'0 0.0
2017-Mar-22 19:33N 49°11' W 123°52'2 2.5
2017-Mar-22 18:33N 49°10' W 123°55'0 0.4
2017-Mar-22 17:33N 49°10' W 123°56'1 0.9
2017-Mar-22 16:33N 49°10' W 123°54'2 1.9
2017-Mar-22 15:32N 49°11' W 123°52'0 0.0
2017-Mar-22 14:33N 49°11' W 123°52'2 2.3
2017-Mar-22 13:33N 49°10' W 123°55'2 1.6
2017-Mar-22 12:10N 49°11' W 123°52'0 0.0
2017-Mar-22 11:28N 49°11' W 123°52'0 0.0
2017-Mar-22 07:22N 49°11' W 123°52'0 0.0
2017-Mar-22 06:21N 49°11' W 123°52'0 0.3
2017-Mar-22 05:33N 49°11' W 123°52'0 0.3
2017-Mar-22 04:33N 49°11' W 123°52'1 0.8
2017-Mar-22 03:33N 49°10' W 123°54'1 1.1
2017-Mar-22 02:33N 49°11' W 123°52'0 0.2
2017-Mar-22 01:31N 49°11' W 123°52'0 0.0
2017-Mar-22 00:33N 49°11' W 123°52'2 1.9
2017-Mar-21 23:33N 49°10' W 123°54'1 1.0
2017-Mar-21 22:33N 49°10' W 123°56'2 1.5
2017-Mar-21 21:34N 49°10' W 123°54'1 1.3
2017-Mar-21 20:32N 49°11' W 123°52'0 0.0
2017-Mar-21 19:33N 49°11' W 123°52'2 2.4
2017-Mar-21 18:34N 49°10' W 123°55'1 0.5
2017-Mar-21 17:33N 49°10' W 123°56'1 0.9
2017-Mar-21 16:33N 49°10' W 123°55'2 2.0
2017-Mar-21 15:32N 49°11' W 123°52'0 0.0
2017-Mar-21 14:21N 49°11' W 123°52'2 2.8
2017-Mar-21 13:33N 49°10' W 123°55'2 1.7
2017-Mar-21 12:13N 49°11' W 123°52'0 0.0
2017-Mar-21 11:31N 49°11' W 123°52'0 0.0
2017-Mar-21 08:07N 49°11' W 123°52'0 0.0
2017-Mar-21 06:21N 49°11' W 123°52'0 0.6
2017-Mar-21 05:33N 49°11' W 123°52'0 0.0
2017-Mar-21 04:33N 49°11' W 123°52'0 0.1
2017-Mar-21 03:33N 49°11' W 123°52'0 0.2
2017-Mar-21 02:33N 49°11' W 123°52'0 0.4
2017-Mar-21 01:33N 49°11' W 123°52'0 0.0
2017-Mar-21 00:20N 49°11' W 123°52'2 2.7
2017-Mar-20 23:33N 49°10' W 123°55'1 0.8
2017-Mar-20 22:33N 49°10' W 123°56'1 1.3
2017-Mar-20 21:33N 49°10' W 123°54'2 1.6
2017-Mar-20 20:33N 49°11' W 123°52'0 0.0
2017-Mar-20 19:33N 49°11' W 123°52'2 2.4
2017-Mar-20 18:33N 49°10' W 123°55'0 0.5
2017-Mar-20 17:33N 49°10' W 123°56'1 1.1
2017-Mar-20 16:33N 49°10' W 123°54'2 1.8
2017-Mar-20 15:33N 49°11' W 123°52'0 0.0
2017-Mar-20 14:33N 49°11' W 123°52'3 2.9
2017-Mar-20 13:33N 49°10' W 123°56'3 0.4
2017-Mar-20 06:31N 49°11' W 123°52'0 0.0
2017-Mar-20 05:33N 49°11' W 123°52'0 0.0
2017-Mar-20 04:33N 49°11' W 123°52'1 1.3
2017-Mar-20 03:33N 49°10' W 123°53'1 1.0
2017-Mar-20 02:33N 49°11' W 123°52'0 0.3
2017-Mar-20 01:33N 49°11' W 123°52'0 0.0
2017-Mar-20 00:31N 49°11' W 123°52'1 1.3
2017-Mar-19 23:33N 49°10' W 123°53'2 1.6
2017-Mar-19 22:33N 49°10' W 123°56'3 1.5
2017-Mar-19 20:33N 49°11' W 123°52'0 0.0
2017-Mar-19 19:33N 49°11' W 123°52'2 2.0
2017-Mar-19 18:33N 49°10' W 123°55'1 0.9
2017-Mar-19 17:33N 49°10' W 123°56'1 0.6
2017-Mar-19 16:33N 49°10' W 123°55'2 2.2
2017-Mar-19 15:33N 49°11' W 123°52'3 2.7
2017-Mar-19 14:33N 49°10' W 123°56'1 0.8
2017-Mar-19 13:33N 49°10' W 123°55'2 0.9
2017-Mar-19 11:21N 49°11' W 123°52'0 0.0
2017-Mar-19 10:33N 49°11' W 123°52'0 0.0
2017-Mar-19 09:33N 49°11' W 123°52'0 0.0
2017-Mar-19 08:30N 49°11' W 123°52'0 0.0
2017-Mar-19 06:23N 49°11' W 123°52'1 0.7
2017-Mar-19 05:33N 49°11' W 123°52'0 0.3
2017-Mar-19 04:33N 49°11' W 123°52'1 0.8
2017-Mar-19 03:33N 49°10' W 123°53'1 1.0
2017-Mar-19 02:33N 49°11' W 123°52'0 0.2
2017-Mar-19 01:33N 49°11' W 123°52'0 0.0
2017-Mar-19 00:31N 49°11' W 123°52'2 2.3
2017-Mar-18 23:33N 49°10' W 123°55'1 0.7
2017-Mar-18 22:32N 49°10' W 123°56'3 1.5
2017-Mar-18 20:32N 49°11' W 123°52'0 0.0
2017-Mar-18 19:33N 49°11' W 123°52'2 1.8
2017-Mar-18 18:33N 49°10' W 123°54'1 1.1
2017-Mar-18 17:33N 49°10' W 123°56'1 1.0
2017-Mar-18 16:33N 49°10' W 123°54'2 1.9
2017-Mar-18 15:33N 49°11' W 123°52'0 0.0
2017-Mar-18 14:33N 49°11' W 123°52'3 2.7
2017-Mar-18 13:33N 49°10' W 123°55'3 2.3
2017-Mar-18 12:25N 49°11' W 123°52'0 0.0
2017-Mar-18 11:19N 49°11' W 123°52'0 0.0
2017-Mar-18 10:13N 49°11' W 123°52'0 0.0
2017-Mar-18 09:31N 49°11' W 123°52'0 0.0
2017-Mar-18 08:31N 49°11' W 123°52'0 0.0
2017-Mar-18 07:31N 49°11' W 123°52'0 0.0
2017-Mar-18 06:22N 49°11' W 123°52'0 0.2
2017-Mar-18 05:33N 49°11' W 123°52'0 0.2
2017-Mar-18 04:33N 49°11' W 123°52'1 0.7
2017-Mar-18 03:33N 49°10' W 123°53'1 0.8
2017-Mar-18 02:33N 49°11' W 123°52'0 0.3
2017-Mar-18 01:32N 49°11' W 123°52'0 0.0
2017-Mar-18 00:33N 49°11' W 123°52'2 2.0
2017-Mar-17 23:33N 49°10' W 123°55'1 0.9
2017-Mar-17 22:33N 49°10' W 123°56'1 1.3
2017-Mar-17 21:33N 49°10' W 123°54'2 1.6
2017-Mar-17 20:33N 49°11' W 123°52'0 0.0
2017-Mar-17 19:32N 49°11' W 123°52'2 2.2
2017-Mar-17 18:33N 49°10' W 123°55'1 0.8
2017-Mar-17 17:33N 49°10' W 123°56'1 0.6
2017-Mar-17 16:33N 49°10' W 123°55'2 2.2
2017-Mar-17 15:33N 49°11' W 123°52'0 0.0
2017-Mar-17 14:33N 49°11' W 123°52'2 2.3
2017-Mar-17 13:33N 49°10' W 123°55'2 2.1
2017-Mar-17 12:27N 49°11' W 123°52'0 0.0
2017-Mar-17 11:12N 49°11' W 123°52'0 0.0
2017-Mar-17 10:18N 49°11' W 123°52'0 0.0
2017-Mar-17 09:30N 49°11' W 123°52'0 0.0
2017-Mar-17 08:06N 49°11' W 123°52'0 0.0
2017-Mar-17 07:18N 49°11' W 123°52'0 0.0
2017-Mar-17 06:19N 49°11' W 123°52'0 0.1
2017-Mar-17 05:33N 49°11' W 123°52'0 0.1
2017-Mar-17 04:34N 49°11' W 123°52'1 1.0
2017-Mar-17 03:33N 49°11' W 123°53'1 0.6
2017-Mar-17 02:33N 49°11' W 123°52'0 0.4
2017-Mar-17 01:33N 49°11' W 123°52'0 0.0
2017-Mar-17 00:34N 49°11' W 123°52'1 1.2
2017-Mar-16 23:33N 49°10' W 123°53'2 1.7
2017-Mar-16 22:33N 49°10' W 123°56'0 0.0
2017-Mar-16 21:33N 49°10' W 123°56'2 1.6
2017-Mar-16 20:33N 49°10' W 123°54'1 1.3
2017-Mar-16 19:32N 49°11' W 123°52'0 0.2
2017-Mar-16 18:33N 49°11' W 123°52'3 2.6
2017-Mar-16 17:34N 49°10' W 123°56'0 0.1
2017-Mar-16 16:34N 49°10' W 123°56'3 2.8
2017-Mar-16 15:33N 49°11' W 123°52'0 0.1
2017-Mar-16 14:33N 49°11' W 123°52'2 2.4
2017-Mar-16 13:33N 49°10' W 123°55'2 2.0
2017-Mar-16 12:21N 49°11' W 123°52'0 0.0
2017-Mar-16 11:08N 49°11' W 123°52'0 0.0
2017-Mar-16 09:06N 49°11' W 123°52'0 0.0
2017-Mar-16 08:20N 49°11' W 123°52'0 0.0
2017-Mar-16 07:32N 49°11' W 123°52'0 0.0
2017-Mar-16 06:33N 49°11' W 123°52'3 2.9
2017-Mar-16 05:33N 49°10' W 123°56'3 2.6
2017-Mar-16 04:33N 49°11' W 123°52'1 0.8
2017-Mar-16 03:33N 49°10' W 123°53'1 0.8
2017-Mar-16 02:33N 49°11' W 123°52'0 0.3
2017-Mar-16 01:33N 49°11' W 123°52'0 0.0
2017-Mar-16 00:33N 49°11' W 123°52'1 1.3
2017-Mar-15 23:33N 49°10' W 123°53'2 1.6
2017-Mar-15 22:33N 49°10' W 123°56'1 0.7
2017-Mar-15 21:33N 49°10' W 123°55'2 2.2
2017-Mar-15 20:34N 49°11' W 123°52'0 0.0
2017-Mar-15 19:33N 49°11' W 123°52'2 2.2
2017-Mar-15 18:33N 49°10' W 123°55'1 0.7
2017-Mar-15 17:33N 49°10' W 123°56'0 0.2
2017-Mar-15 16:33N 49°10' W 123°56'3 2.6
2017-Mar-15 15:33N 49°11' W 123°52'0 0.1
2017-Mar-15 14:16N 49°11' W 123°52'2 3.3
2017-Mar-15 13:33N 49°10' W 123°55'  
Track history (hours):
 
Tides and Currents Weather Stations Pressure Air Temp Water Temp Dewpoint Dewpoint Depression Visibility Wind Speed Wind Dir Waves Ship Positions

Quinsam

Last reported at 2017-Mar-25 13:33 UTC. Time now 2017-Mar-25 13:40 UTC.
Position N 49°10' W 123°56'.

Length 88 m; draft 1.5 m.

Type: Ship. MMSI: 316001266.

Date/timePositionNaut miles runAvg speedWind from/ knotsBaromVisibWave heightAir tempDewpointWater temp
2017-Mar-25 13:33N 49°10' W 123°56'3 0.9
2017-Mar-25 10:17N 49°11' W 123°52'0 0.0
2017-Mar-25 09:29N 49°11' W 123°52'0 0.0
2017-Mar-25 07:29N 49°11' W 123°52'0 0.0
2017-Mar-25 06:23N 49°11' W 123°52'0 0.4
2017-Mar-25 05:33N 49°11' W 123°52'0 0.2
2017-Mar-25 04:32N 49°11' W 123°52'0 0.4
2017-Mar-25 03:33N 49°11' W 123°52'0 0.1
2017-Mar-25 02:33N 49°11' W 123°52'0 0.4
2017-Mar-25 01:33N 49°11' W 123°52'0 0.2
2017-Mar-25 00:31N 49°11' W 123°52'1 0.9
2017-Mar-24 23:33N 49°11' W 123°53'2 2.1
2017-Mar-24 22:33N 49°10' W 123°56'1 1.0
2017-Mar-24 21:33N 49°10' W 123°54'2 1.9
2017-Mar-24 20:33N 49°11' W 123°52'0 0.0
2017-Mar-24 19:33N 49°11' W 123°52'2 1.5
2017-Mar-24 18:33N 49°10' W 123°54'1 1.4
2017-Mar-24 17:33N 49°10' W 123°56'1 1.0
2017-Mar-24 16:33N 49°10' W 123°54'2 1.7
2017-Mar-24 15:33N 49°11' W 123°52'0 0.2
2017-Mar-24 14:23N 49°11' W 123°52'2 2.7
2017-Mar-24 13:33N 49°10' W 123°55'2 1.9
2017-Mar-24 12:23N 49°11' W 123°52'0 0.0
2017-Mar-24 11:29N 49°11' W 123°52'0 0.0
2017-Mar-24 10:08N 49°11' W 123°52'0 0.0
2017-Mar-24 07:17N 49°11' W 123°52'0 0.0
2017-Mar-24 06:24N 49°11' W 123°52'0 0.3
2017-Mar-24 05:33N 49°11' W 123°52'0 0.2
2017-Mar-24 04:34N 49°11' W 123°52'1 0.6
2017-Mar-24 03:33N 49°10' W 123°53'1 0.9
2017-Mar-24 02:33N 49°11' W 123°52'0 0.2
2017-Mar-24 01:33N 49°11' W 123°52'0 0.0
2017-Mar-24 00:33N 49°11' W 123°52'2 2.3
2017-Mar-23 23:34N 49°10' W 123°55'1 0.6
2017-Mar-23 22:33N 49°10' W 123°56'1 1.0
2017-Mar-23 21:32N 49°10' W 123°54'2 1.9
2017-Mar-23 20:33N 49°11' W 123°52'0 0.0
2017-Mar-23 19:33N 49°11' W 123°52'2 2.4
2017-Mar-23 18:34N 49°10' W 123°55'0 0.5
2017-Mar-23 17:33N 49°10' W 123°56'1 0.7
2017-Mar-23 16:33N 49°10' W 123°55'2 2.2
2017-Mar-23 15:33N 49°11' W 123°52'0 0.0
2017-Mar-23 14:28N 49°11' W 123°52'2 2.4
2017-Mar-23 13:33N 49°10' W 123°55'2 2.1
2017-Mar-23 12:33N 49°11' W 123°52'0 0.0
2017-Mar-23 06:21N 49°11' W 123°52'3 3.6
2017-Mar-23 05:33N 49°10' W 123°56'3 2.6
2017-Mar-23 04:33N 49°11' W 123°52'0 0.3
2017-Mar-23 03:33N 49°11' W 123°53'0 0.4
2017-Mar-23 02:33N 49°11' W 123°52'0 0.2
2017-Mar-23 01:33N 49°11' W 123°52'0 0.0
2017-Mar-23 00:32N 49°11' W 123°52'2 1.7
2017-Mar-22 23:33N 49°10' W 123°54'1 1.3
2017-Mar-22 22:33N 49°10' W 123°56'1 0.9
2017-Mar-22 21:33N 49°10' W 123°55'2 2.0
2017-Mar-22 20:33N 49°11' W 123°52'0 0.0
2017-Mar-22 19:33N 49°11' W 123°52'2 2.5
2017-Mar-22 18:33N 49°10' W 123°55'0 0.4
2017-Mar-22 17:33N 49°10' W 123°56'1 0.9
2017-Mar-22 16:33N 49°10' W 123°54'2 1.9
2017-Mar-22 15:32N 49°11' W 123°52'0 0.0
2017-Mar-22 14:33N 49°11' W 123°52'2 2.3
2017-Mar-22 13:33N 49°10' W 123°55'2 1.6
2017-Mar-22 12:10N 49°11' W 123°52'0 0.0
2017-Mar-22 11:28N 49°11' W 123°52'0 0.0
2017-Mar-22 07:22N 49°11' W 123°52'0 0.0
2017-Mar-22 06:21N 49°11' W 123°52'0 0.3
2017-Mar-22 05:33N 49°11' W 123°52'0 0.3
2017-Mar-22 04:33N 49°11' W 123°52'1 0.8
2017-Mar-22 03:33N 49°10' W 123°54'1 1.1
2017-Mar-22 02:33N 49°11' W 123°52'0 0.2
2017-Mar-22 01:31N 49°11' W 123°52'0 0.0
2017-Mar-22 00:33N 49°11' W 123°52'2 1.9
2017-Mar-21 23:33N 49°10' W 123°54'1 1.0
2017-Mar-21 22:33N 49°10' W 123°56'2 1.5
2017-Mar-21 21:34N 49°10' W 123°54'1 1.3
2017-Mar-21 20:32N 49°11' W 123°52'0 0.0
2017-Mar-21 19:33N 49°11' W 123°52'2 2.4
2017-Mar-21 18:34N 49°10' W 123°55'1 0.5
2017-Mar-21 17:33N 49°10' W 123°56'1 0.9
2017-Mar-21 16:33N 49°10' W 123°55'2 2.0
2017-Mar-21 15:32N 49°11' W 123°52'0 0.0
2017-Mar-21 14:21N 49°11' W 123°52'2 2.8
2017-Mar-21 13:33N 49°10' W 123°55'2 1.7
2017-Mar-21 12:13N 49°11' W 123°52'0 0.0
2017-Mar-21 11:31N 49°11' W 123°52'0 0.0
2017-Mar-21 08:07N 49°11' W 123°52'0 0.0
2017-Mar-21 06:21N 49°11' W 123°52'0 0.6
2017-Mar-21 05:33N 49°11' W 123°52'0 0.0
2017-Mar-21 04:33N 49°11' W 123°52'0 0.1
2017-Mar-21 03:33N 49°11' W 123°52'0 0.2
2017-Mar-21 02:33N 49°11' W 123°52'0 0.4
2017-Mar-21 01:33N 49°11' W 123°52'0 0.0
2017-Mar-21 00:20N 49°11' W 123°52'2 2.7
2017-Mar-20 23:33N 49°10' W 123°55'1 0.8
2017-Mar-20 22:33N 49°10' W 123°56'1 1.3
2017-Mar-20 21:33N 49°10' W 123°54'2 1.6
2017-Mar-20 20:33N 49°11' W 123°52'0 0.0
2017-Mar-20 19:33N 49°11' W 123°52'2 2.4
2017-Mar-20 18:33N 49°10' W 123°55'0 0.5
2017-Mar-20 17:33N 49°10' W 123°56'1 1.1
2017-Mar-20 16:33N 49°10' W 123°54'2 1.8
2017-Mar-20 15:33N 49°11' W 123°52'0 0.0
2017-Mar-20 14:33N 49°11' W 123°52'3 2.9
2017-Mar-20 13:33N 49°10' W 123°56'3 0.4
2017-Mar-20 06:31N 49°11' W 123°52'0 0.0
2017-Mar-20 05:33N 49°11' W 123°52'0 0.0
2017-Mar-20 04:33N 49°11' W 123°52'1 1.3
2017-Mar-20 03:33N 49°10' W 123°53'1 1.0
2017-Mar-20 02:33N 49°11' W 123°52'0 0.3
2017-Mar-20 01:33N 49°11' W 123°52'0 0.0
2017-Mar-20 00:31N 49°11' W 123°52'1 1.3
2017-Mar-19 23:33N 49°10' W 123°53'2 1.6
2017-Mar-19 22:33N 49°10' W 123°56'3 1.5
2017-Mar-19 20:33N 49°11' W 123°52'0 0.0
2017-Mar-19 19:33N 49°11' W 123°52'2 2.0
2017-Mar-19 18:33N 49°10' W 123°55'1 0.9
2017-Mar-19 17:33N 49°10' W 123°56'1 0.6
2017-Mar-19 16:33N 49°10' W 123°55'2 2.2
2017-Mar-19 15:33N 49°11' W 123°52'3 2.7
2017-Mar-19 14:33N 49°10' W 123°56'1 0.8
2017-Mar-19 13:33N 49°10' W 123°55'2 0.9
2017-Mar-19 11:21N 49°11' W 123°52'0 0.0
2017-Mar-19 10:33N 49°11' W 123°52'0 0.0
2017-Mar-19 09:33N 49°11' W 123°52'0 0.0
2017-Mar-19 08:30N 49°11' W 123°52'0 0.0
2017-Mar-19 06:23N 49°11' W 123°52'1 0.7
2017-Mar-19 05:33N 49°11' W 123°52'0 0.3
2017-Mar-19 04:33N 49°11' W 123°52'1 0.8
2017-Mar-19 03:33N 49°10' W 123°53'1 1.0
2017-Mar-19 02:33N 49°11' W 123°52'0 0.2
2017-Mar-19 01:33N 49°11' W 123°52'0 0.0
2017-Mar-19 00:31N 49°11' W 123°52'2 2.3
2017-Mar-18 23:33N 49°10' W 123°55'1 0.7
2017-Mar-18 22:32N 49°10' W 123°56'3 1.5
2017-Mar-18 20:32N 49°11' W 123°52'0 0.0
2017-Mar-18 19:33N 49°11' W 123°52'2 1.8
2017-Mar-18 18:33N 49°10' W 123°54'1 1.1
2017-Mar-18 17:33N 49°10' W 123°56'1 1.0
2017-Mar-18 16:33N 49°10' W 123°54'2 1.9
2017-Mar-18 15:33N 49°11' W 123°52'0 0.0
2017-Mar-18 14:33N 49°11' W 123°52'3 2.7
2017-Mar-18 13:33N 49°10' W 123°55'3 2.3
2017-Mar-18 12:25N 49°11' W 123°52'0 0.0
2017-Mar-18 11:19N 49°11' W 123°52'0 0.0
2017-Mar-18 10:13N 49°11' W 123°52'0 0.0
2017-Mar-18 09:31N 49°11' W 123°52'0 0.0
2017-Mar-18 08:31N 49°11' W 123°52'0 0.0
2017-Mar-18 07:31N 49°11' W 123°52'0 0.0
2017-Mar-18 06:22N 49°11' W 123°52'0 0.2
2017-Mar-18 05:33N 49°11' W 123°52'0 0.2
2017-Mar-18 04:33N 49°11' W 123°52'1 0.7
2017-Mar-18 03:33N 49°10' W 123°53'1 0.8
2017-Mar-18 02:33N 49°11' W 123°52'0 0.3
2017-Mar-18 01:32N 49°11' W 123°52'0 0.0
2017-Mar-18 00:33N 49°11' W 123°52'2 2.0
2017-Mar-17 23:33N 49°10' W 123°55'1 0.9
2017-Mar-17 22:33N 49°10' W 123°56'1 1.3
2017-Mar-17 21:33N 49°10' W 123°54'2 1.6
2017-Mar-17 20:33N 49°11' W 123°52'0 0.0
2017-Mar-17 19:32N 49°11' W 123°52'2 2.2
2017-Mar-17 18:33N 49°10' W 123°55'1 0.8
2017-Mar-17 17:33N 49°10' W 123°56'1 0.6
2017-Mar-17 16:33N 49°10' W 123°55'2 2.2
2017-Mar-17 15:33N 49°11' W 123°52'0 0.0
2017-Mar-17 14:33N 49°11' W 123°52'2 2.3
2017-Mar-17 13:33N 49°10' W 123°55'2 2.1
2017-Mar-17 12:27N 49°11' W 123°52'0 0.0
2017-Mar-17 11:12N 49°11' W 123°52'0 0.0
2017-Mar-17 10:18N 49°11' W 123°52'0 0.0
2017-Mar-17 09:30N 49°11' W 123°52'0 0.0
2017-Mar-17 08:06N 49°11' W 123°52'0 0.0
2017-Mar-17 07:18N 49°11' W 123°52'0 0.0
2017-Mar-17 06:19N 49°11' W 123°52'0 0.1
2017-Mar-17 05:33N 49°11' W 123°52'0 0.1
2017-Mar-17 04:34N 49°11' W 123°52'1 1.0
2017-Mar-17 03:33N 49°11' W 123°53'1 0.6
2017-Mar-17 02:33N 49°11' W 123°52'0 0.4
2017-Mar-17 01:33N 49°11' W 123°52'0 0.0
2017-Mar-17 00:34N 49°11' W 123°52'1 1.2
2017-Mar-16 23:33N 49°10' W 123°53'2 1.7
2017-Mar-16 22:33N 49°10' W 123°56'0 0.0
2017-Mar-16 21:33N 49°10' W 123°56'2 1.6
2017-Mar-16 20:33N 49°10' W 123°54'1 1.3
2017-Mar-16 19:32N 49°11' W 123°52'0 0.2
2017-Mar-16 18:33N 49°11' W 123°52'3 2.6
2017-Mar-16 17:34N 49°10' W 123°56'0 0.1
2017-Mar-16 16:34N 49°10' W 123°56'3 2.8
2017-Mar-16 15:33N 49°11' W 123°52'0 0.1
2017-Mar-16 14:33N 49°11' W 123°52'2 2.4
2017-Mar-16 13:33N 49°10' W 123°55'2 2.0
2017-Mar-16 12:21N 49°11' W 123°52'0 0.0
2017-Mar-16 11:08N 49°11' W 123°52'0 0.0
2017-Mar-16 09:06N 49°11' W 123°52'0 0.0
2017-Mar-16 08:20N 49°11' W 123°52'0 0.0
2017-Mar-16 07:32N 49°11' W 123°52'0 0.0
2017-Mar-16 06:33N 49°11' W 123°52'3 2.9
2017-Mar-16 05:33N 49°10' W 123°56'3 2.6
2017-Mar-16 04:33N 49°11' W 123°52'1 0.8
2017-Mar-16 03:33N 49°10' W 123°53'1 0.8
2017-Mar-16 02:33N 49°11' W 123°52'0 0.3
2017-Mar-16 01:33N 49°11' W 123°52'0 0.0
2017-Mar-16 00:33N 49°11' W 123°52'1 1.3
2017-Mar-15 23:33N 49°10' W 123°53'2 1.6
2017-Mar-15 22:33N 49°10' W 123°56'1 0.7
2017-Mar-15 21:33N 49°10' W 123°55'2 2.2
2017-Mar-15 20:34N 49°11' W 123°52'0 0.0
2017-Mar-15 19:33N 49°11' W 123°52'2 2.2
2017-Mar-15 18:33N 49°10' W 123°55'1 0.7
2017-Mar-15 17:33N 49°10' W 123°56'0 0.2
2017-Mar-15 16:33N 49°10' W 123°56'3 2.6
2017-Mar-15 15:33N 49°11' W 123°52'0 0.1
2017-Mar-15 14:16N 49°11' W 123°52'2 3.3
2017-Mar-15 13:33N 49°10' W 123°55'  

Dump ship's entire track history